sensor_id;sensor_type;location;lat;lon;timestamp;temperature;humidity
16402;DHT22;8310;44.626;11.176;2023-05-21T00:01:26;17.60;75.40
16402;DHT22;8310;44.626;11.176;2023-05-21T00:03:54;17.60;75.40
16402;DHT22;8310;44.626;11.176;2023-05-21T00:06:21;17.60;75.30
16402;DHT22;8310;44.626;11.176;2023-05-21T00:08:48;17.60;75.40
16402;DHT22;8310;44.626;11.176;2023-05-21T00:11:15;17.50;75.30
16402;DHT22;8310;44.626;11.176;2023-05-21T00:13:43;17.50;75.40
16402;DHT22;8310;44.626;11.176;2023-05-21T00:16:21;17.50;75.40
16402;DHT22;8310;44.626;11.176;2023-05-21T00:18:48;17.50;75.50
16402;DHT22;8310;44.626;11.176;2023-05-21T00:21:16;17.50;75.50
16402;DHT22;8310;44.626;11.176;2023-05-21T00:23:47;17.50;75.60
16402;DHT22;8310;44.626;11.176;2023-05-21T00:26:14;17.40;75.40
16402;DHT22;8310;44.626;11.176;2023-05-21T00:28:41;17.40;75.30
16402;DHT22;8310;44.626;11.176;2023-05-21T00:31:08;17.40;75.30
16402;DHT22;8310;44.626;11.176;2023-05-21T00:33:37;17.40;75.40
16402;DHT22;8310;44.626;11.176;2023-05-21T00:36:04;17.30;75.50
16402;DHT22;8310;44.626;11.176;2023-05-21T00:38:32;17.30;75.40
16402;DHT22;8310;44.626;11.176;2023-05-21T00:41:01;17.20;75.30
16402;DHT22;8310;44.626;11.176;2023-05-21T00:43:29;17.20;75.60
16402;DHT22;8310;44.626;11.176;2023-05-21T00:45:56;17.20;75.50
16402;DHT22;8310;44.626;11.176;2023-05-21T00:48:24;17.20;75.70
16402;DHT22;8310;44.626;11.176;2023-05-21T00:50:53;17.10;75.60
16402;DHT22;8310;44.626;11.176;2023-05-21T00:53:20;17.10;75.90
16402;DHT22;8310;44.626;11.176;2023-05-21T00:55:48;17.10;75.60
16402;DHT22;8310;44.626;11.176;2023-05-21T00:58:16;17.00;75.50
16402;DHT22;8310;44.626;11.176;2023-05-21T01:00:43;17.00;75.90
16402;DHT22;8310;44.626;11.176;2023-05-21T01:03:12;17.00;75.60
16402;DHT22;8310;44.626;11.176;2023-05-21T01:05:40;17.00;75.90
16402;DHT22;8310;44.626;11.176;2023-05-21T01:08:11;17.00;76.00
16402;DHT22;8310;44.626;11.176;2023-05-21T01:10:41;17.00;76.00
16402;DHT22;8310;44.626;11.176;2023-05-21T01:13:08;17.00;76.30
16402;DHT22;8310;44.626;11.176;2023-05-21T01:15:36;17.00;76.40
16402;DHT22;8310;44.626;11.176;2023-05-21T01:18:03;17.00;76.80
16402;DHT22;8310;44.626;11.176;2023-05-21T01:20:32;17.00;76.70
16402;DHT22;8310;44.626;11.176;2023-05-21T01:23:01;16.90;76.50
16402;DHT22;8310;44.626;11.176;2023-05-21T01:25:28;16.90;76.80
16402;DHT22;8310;44.626;11.176;2023-05-21T01:27:56;16.90;76.50
16402;DHT22;8310;44.626;11.176;2023-05-21T01:30:23;16.90;76.60
16402;DHT22;8310;44.626;11.176;2023-05-21T01:32:53;17.00;76.90
16402;DHT22;8310;44.626;11.176;2023-05-21T01:35:24;17.00;77.10
16402;DHT22;8310;44.626;11.176;2023-05-21T01:37:54;17.00;76.90
16402;DHT22;8310;44.626;11.176;2023-05-21T01:40:27;17.00;77.00
16402;DHT22;8310;44.626;11.176;2023-05-21T01:42:56;17.00;77.00
16402;DHT22;8310;44.626;11.176;2023-05-21T01:45:24;17.00;77.30
16402;DHT22;8310;44.626;11.176;2023-05-21T01:47:52;17.00;77.00
16402;DHT22;8310;44.626;11.176;2023-05-21T01:50:20;17.00;77.10
16402;DHT22;8310;44.626;11.176;2023-05-21T01:52:50;17.00;76.90
16402;DHT22;8310;44.626;11.176;2023-05-21T01:55:18;17.00;77.00
16402;DHT22;8310;44.626;11.176;2023-05-21T01:57:50;17.00;77.10
16402;DHT22;8310;44.626;11.176;2023-05-21T02:00:18;17.00;77.40
16402;DHT22;8310;44.626;11.176;2023-05-21T02:02:46;17.00;77.60
16402;DHT22;8310;44.626;11.176;2023-05-21T02:05:13;17.00;78.50
16402;DHT22;8310;44.626;11.176;2023-05-21T02:07:40;17.00;78.30
16402;DHT22;8310;44.626;11.176;2023-05-21T02:10:08;17.00;78.10
16402;DHT22;8310;44.626;11.176;2023-05-21T02:12:36;17.00;77.80
16402;DHT22;8310;44.626;11.176;2023-05-21T02:15:06;17.00;78.00
16402;DHT22;8310;44.626;11.176;2023-05-21T02:17:33;17.00;78.30
16402;DHT22;8310;44.626;11.176;2023-05-21T02:20:00;17.00;78.30
16402;DHT22;8310;44.626;11.176;2023-05-21T02:22:35;17.00;78.70
16402;DHT22;8310;44.626;11.176;2023-05-21T02:25:03;17.00;79.10
16402;DHT22;8310;44.626;11.176;2023-05-21T02:27:30;17.00;79.40
16402;DHT22;8310;44.626;11.176;2023-05-21T02:29:59;17.10;79.70
16402;DHT22;8310;44.626;11.176;2023-05-21T02:32:28;17.00;78.90
16402;DHT22;8310;44.626;11.176;2023-05-21T02:34:56;17.00;78.40
16402;DHT22;8310;44.626;11.176;2023-05-21T02:37:24;17.00;78.50
16402;DHT22;8310;44.626;11.176;2023-05-21T02:39:51;17.00;78.60
16402;DHT22;8310;44.626;11.176;2023-05-21T02:42:20;17.00;78.40
16402;DHT22;8310;44.626;11.176;2023-05-21T02:44:48;17.00;78.10
16402;DHT22;8310;44.626;11.176;2023-05-21T02:47:15;17.00;78.10
16402;DHT22;8310;44.626;11.176;2023-05-21T02:49:44;17.00;77.80
16402;DHT22;8310;44.626;11.176;2023-05-21T02:52:11;17.10;77.40
16402;DHT22;8310;44.626;11.176;2023-05-21T02:54:38;17.10;77.00
16402;DHT22;8310;44.626;11.176;2023-05-21T02:57:05;17.00;76.80
16402;DHT22;8310;44.626;11.176;2023-05-21T02:59:32;17.00;76.90
16402;DHT22;8310;44.626;11.176;2023-05-21T03:02:00;17.00;77.20
16402;DHT22;8310;44.626;11.176;2023-05-21T03:04:28;17.00;77.50
16402;DHT22;8310;44.626;11.176;2023-05-21T03:06:56;17.00;77.10
16402;DHT22;8310;44.626;11.176;2023-05-21T03:09:26;17.00;77.10
16402;DHT22;8310;44.626;11.176;2023-05-21T03:11:53;17.00;76.90
16402;DHT22;8310;44.626;11.176;2023-05-21T03:14:20;17.00;77.20
16402;DHT22;8310;44.626;11.176;2023-05-21T03:16:47;17.00;76.80
16402;DHT22;8310;44.626;11.176;2023-05-21T03:19:15;17.00;76.80
16402;DHT22;8310;44.626;11.176;2023-05-21T03:21:42;17.10;76.80
16402;DHT22;8310;44.626;11.176;2023-05-21T03:24:11;17.10;76.80
16402;DHT22;8310;44.626;11.176;2023-05-21T03:26:40;17.10;77.20
16402;DHT22;8310;44.626;11.176;2023-05-21T03:29:07;17.10;77.70
16402;DHT22;8310;44.626;11.176;2023-05-21T03:31:35;17.10;77.40
16402;DHT22;8310;44.626;11.176;2023-05-21T03:34:02;17.10;77.90
16402;DHT22;8310;44.626;11.176;2023-05-21T03:36:30;17.10;77.10
16402;DHT22;8310;44.626;11.176;2023-05-21T03:38:57;17.10;77.00
16402;DHT22;8310;44.626;11.176;2023-05-21T03:41:26;17.10;77.00
16402;DHT22;8310;44.626;11.176;2023-05-21T03:43:53;17.10;77.00
16402;DHT22;8310;44.626;11.176;2023-05-21T03:46:20;17.20;77.00
16402;DHT22;8310;44.626;11.176;2023-05-21T03:48:47;17.20;76.90
16402;DHT22;8310;44.626;11.176;2023-05-21T03:51:14;17.20;76.80
16402;DHT22;8310;44.626;11.176;2023-05-21T03:53:42;17.20;76.90
16402;DHT22;8310;44.626;11.176;2023-05-21T03:56:10;17.20;76.80
16402;DHT22;8310;44.626;11.176;2023-05-21T03:58:39;17.20;76.80
16402;DHT22;8310;44.626;11.176;2023-05-21T04:01:06;17.20;76.80
16402;DHT22;8310;44.626;11.176;2023-05-21T04:03:33;17.20;76.70
16402;DHT22;8310;44.626;11.176;2023-05-21T04:06:01;17.20;76.70
16402;DHT22;8310;44.626;11.176;2023-05-21T04:08:28;17.20;76.70
16402;DHT22;8310;44.626;11.176;2023-05-21T04:10:55;17.20;76.80
16402;DHT22;8310;44.626;11.176;2023-05-21T04:13:23;17.20;77.20
16402;DHT22;8310;44.626;11.176;2023-05-21T04:15:52;17.10;77.10
16402;DHT22;8310;44.626;11.176;2023-05-21T04:18:19;17.10;76.90
16402;DHT22;8310;44.626;11.176;2023-05-21T04:20:48;17.10;76.80
16402;DHT22;8310;44.626;11.176;2023-05-21T04:23:15;17.10;76.80
16402;DHT22;8310;44.626;11.176;2023-05-21T04:25:42;17.20;76.80
16402;DHT22;8310;44.626;11.176;2023-05-21T04:28:09;17.20;76.70
16402;DHT22;8310;44.626;11.176;2023-05-21T04:30:36;17.20;76.70
16402;DHT22;8310;44.626;11.176;2023-05-21T04:33:05;17.20;76.70
16402;DHT22;8310;44.626;11.176;2023-05-21T04:35:34;17.20;76.80
16402;DHT22;8310;44.626;11.176;2023-05-21T04:38:01;17.20;76.70
16402;DHT22;8310;44.626;11.176;2023-05-21T04:40:29;17.20;77.00
16402;DHT22;8310;44.626;11.176;2023-05-21T04:42:57;17.20;76.80
16402;DHT22;8310;44.626;11.176;2023-05-21T04:45:25;17.20;76.90
16402;DHT22;8310;44.626;11.176;2023-05-21T04:47:52;17.20;77.00
16402;DHT22;8310;44.626;11.176;2023-05-21T04:50:26;17.20;76.90
16402;DHT22;8310;44.626;11.176;2023-05-21T04:52:55;17.20;76.90
16402;DHT22;8310;44.626;11.176;2023-05-21T04:55:23;17.20;76.90
16402;DHT22;8310;44.626;11.176;2023-05-21T04:57:50;17.20;77.00
16402;DHT22;8310;44.626;11.176;2023-05-21T05:00:18;17.20;76.90
16402;DHT22;8310;44.626;11.176;2023-05-21T05:02:45;17.30;77.10
16402;DHT22;8310;44.626;11.176;2023-05-21T05:05:12;17.30;77.10
16402;DHT22;8310;44.626;11.176;2023-05-21T05:07:40;17.30;77.20
16402;DHT22;8310;44.626;11.176;2023-05-21T05:10:07;17.40;77.10
16402;DHT22;8310;44.626;11.176;2023-05-21T05:12:35;17.40;77.10
16402;DHT22;8310;44.626;11.176;2023-05-21T05:15:02;17.40;77.10
16402;DHT22;8310;44.626;11.176;2023-05-21T05:17:29;17.40;78.00
16402;DHT22;8310;44.626;11.176;2023-05-21T05:19:56;17.40;77.20
16402;DHT22;8310;44.626;11.176;2023-05-21T05:22:24;17.50;77.40
16402;DHT22;8310;44.626;11.176;2023-05-21T05:24:54;17.50;77.40
16402;DHT22;8310;44.626;11.176;2023-05-21T05:27:22;17.50;77.60
16402;DHT22;8310;44.626;11.176;2023-05-21T05:29:49;17.50;77.70
16402;DHT22;8310;44.626;11.176;2023-05-21T05:32:16;17.60;78.30
16402;DHT22;8310;44.626;11.176;2023-05-21T05:34:44;17.60;79.00
16402;DHT22;8310;44.626;11.176;2023-05-21T05:37:12;17.60;78.70
16402;DHT22;8310;44.626;11.176;2023-05-21T05:39:39;17.60;79.40
16402;DHT22;8310;44.626;11.176;2023-05-21T05:42:08;17.60;79.20
16402;DHT22;8310;44.626;11.176;2023-05-21T05:44:36;17.70;80.00
16402;DHT22;8310;44.626;11.176;2023-05-21T05:47:03;17.70;80.10
16402;DHT22;8310;44.626;11.176;2023-05-21T05:49:35;17.70;80.20
16402;DHT22;8310;44.626;11.176;2023-05-21T05:52:02;17.70;80.50
16402;DHT22;8310;44.626;11.176;2023-05-21T05:54:29;17.70;80.50
16402;DHT22;8310;44.626;11.176;2023-05-21T05:56:56;17.70;81.30
16402;DHT22;8310;44.626;11.176;2023-05-21T05:59:25;17.80;81.90
16402;DHT22;8310;44.626;11.176;2023-05-21T06:01:52;17.80;80.90
16402;DHT22;8310;44.626;11.176;2023-05-21T06:04:19;17.80;81.40
16402;DHT22;8310;44.626;11.176;2023-05-21T06:06:47;17.90;81.70
16402;DHT22;8310;44.626;11.176;2023-05-21T06:09:14;17.90;81.40
16402;DHT22;8310;44.626;11.176;2023-05-21T06:11:41;17.90;82.10
16402;DHT22;8310;44.626;11.176;2023-05-21T06:14:08;18.00;82.40
16402;DHT22;8310;44.626;11.176;2023-05-21T06:16:37;18.10;81.40
16402;DHT22;8310;44.626;11.176;2023-05-21T06:19:05;18.20;81.90
16402;DHT22;8310;44.626;11.176;2023-05-21T06:21:32;18.20;82.20
16402;DHT22;8310;44.626;11.176;2023-05-21T06:23:59;18.30;83.30
16402;DHT22;8310;44.626;11.176;2023-05-21T06:26:27;18.40;83.00
16402;DHT22;8310;44.626;11.176;2023-05-21T06:28:55;18.50;84.40
16402;DHT22;8310;44.626;11.176;2023-05-21T06:31:22;18.70;83.30
16402;DHT22;8310;44.626;11.176;2023-05-21T06:33:51;18.70;83.30
16402;DHT22;8310;44.626;11.176;2023-05-21T06:36:18;18.70;82.60
16402;DHT22;8310;44.626;11.176;2023-05-21T06:38:45;18.80;82.40
16402;DHT22;8310;44.626;11.176;2023-05-21T06:41:13;18.80;82.90
16402;DHT22;8310;44.626;11.176;2023-05-21T06:43:40;18.80;81.70
16402;DHT22;8310;44.626;11.176;2023-05-21T06:46:07;18.80;81.70
16402;DHT22;8310;44.626;11.176;2023-05-21T06:48:35;18.80;81.70
16402;DHT22;8310;44.626;11.176;2023-05-21T06:51:04;18.80;82.40
16402;DHT22;8310;44.626;11.176;2023-05-21T06:53:31;18.90;82.80
16402;DHT22;8310;44.626;11.176;2023-05-21T06:55:58;19.00;83.20
16402;DHT22;8310;44.626;11.176;2023-05-21T06:58:25;19.10;82.00
16402;DHT22;8310;44.626;11.176;2023-05-21T07:00:55;19.20;82.30
16402;DHT22;8310;44.626;11.176;2023-05-21T07:03:22;19.30;83.10
16402;DHT22;8310;44.626;11.176;2023-05-21T07:05:50;19.50;83.30
16402;DHT22;8310;44.626;11.176;2023-05-21T07:08:18;19.60;83.20
16402;DHT22;8310;44.626;11.176;2023-05-21T07:10:45;19.80;83.10
16402;DHT22;8310;44.626;11.176;2023-05-21T07:13:13;19.90;82.80
16402;DHT22;8310;44.626;11.176;2023-05-21T07:15:39;20.00;81.60
16402;DHT22;8310;44.626;11.176;2023-05-21T07:18:07;20.00;81.50
16402;DHT22;8310;44.626;11.176;2023-05-21T07:20:34;20.00;80.90
16402;DHT22;8310;44.626;11.176;2023-05-21T07:23:01;20.10;81.00
16402;DHT22;8310;44.626;11.176;2023-05-21T07:25:32;20.10;81.50
16402;DHT22;8310;44.626;11.176;2023-05-21T07:28:00;20.30;81.60
16402;DHT22;8310;44.626;11.176;2023-05-21T07:30:27;20.40;81.90
16402;DHT22;8310;44.626;11.176;2023-05-21T07:32:54;20.50;81.80
16402;DHT22;8310;44.626;11.176;2023-05-21T07:35:22;20.70;82.00
16402;DHT22;8310;44.626;11.176;2023-05-21T07:37:50;20.70;81.50
16402;DHT22;8310;44.626;11.176;2023-05-21T07:40:17;20.90;81.90
16402;DHT22;8310;44.626;11.176;2023-05-21T07:42:46;21.00;81.80
16402;DHT22;8310;44.626;11.176;2023-05-21T07:45:13;21.10;81.70
16402;DHT22;8310;44.626;11.176;2023-05-21T07:47:41;21.20;81.80
16402;DHT22;8310;44.626;11.176;2023-05-21T07:50:09;21.40;81.90
16402;DHT22;8310;44.626;11.176;2023-05-21T07:52:36;21.50;81.40
16402;DHT22;8310;44.626;11.176;2023-05-21T07:55:05;21.60;81.30
16402;DHT22;8310;44.626;11.176;2023-05-21T07:57:32;21.70;81.40
16402;DHT22;8310;44.626;11.176;2023-05-21T08:00:01;21.80;81.20
16402;DHT22;8310;44.626;11.176;2023-05-21T08:02:28;21.90;81.20
16402;DHT22;8310;44.626;11.176;2023-05-21T08:04:56;22.00;81.20
16402;DHT22;8310;44.626;11.176;2023-05-21T08:07:23;22.10;81.30
16402;DHT22;8310;44.626;11.176;2023-05-21T08:09:50;22.20;81.20
16402;DHT22;8310;44.626;11.176;2023-05-21T08:12:18;22.30;81.10
16402;DHT22;8310;44.626;11.176;2023-05-21T08:14:45;22.40;81.20
16402;DHT22;8310;44.626;11.176;2023-05-21T08:17:14;22.50;81.30
16402;DHT22;8310;44.626;11.176;2023-05-21T08:19:41;22.60;81.20
16402;DHT22;8310;44.626;11.176;2023-05-21T08:22:09;22.70;81.30
16402;DHT22;8310;44.626;11.176;2023-05-21T08:24:36;22.80;80.90
16402;DHT22;8310;44.626;11.176;2023-05-21T08:27:03;22.90;80.90
16402;DHT22;8310;44.626;11.176;2023-05-21T08:29:30;23.00;81.00
16402;DHT22;8310;44.626;11.176;2023-05-21T08:31:57;23.10;80.70
16402;DHT22;8310;44.626;11.176;2023-05-21T08:34:26;23.20;79.40
16402;DHT22;8310;44.626;11.176;2023-05-21T08:36:54;23.30;80.30
16402;DHT22;8310;44.626;11.176;2023-05-21T08:39:21;23.30;78.30
16402;DHT22;8310;44.626;11.176;2023-05-21T08:41:48;23.30;80.10
16402;DHT22;8310;44.626;11.176;2023-05-21T08:44:20;23.40;80.30
16402;DHT22;8310;44.626;11.176;2023-05-21T08:46:49;23.50;80.70
16402;DHT22;8310;44.626;11.176;2023-05-21T08:49:17;23.60;80.80
16402;DHT22;8310;44.626;11.176;2023-05-21T08:51:46;23.70;80.30
16402;DHT22;8310;44.626;11.176;2023-05-21T08:54:14;23.80;80.00
16402;DHT22;8310;44.626;11.176;2023-05-21T08:56:42;23.90;80.20
16402;DHT22;8310;44.626;11.176;2023-05-21T08:59:11;24.00;80.60
16402;DHT22;8310;44.626;11.176;2023-05-21T09:01:38;24.10;79.50
16402;DHT22;8310;44.626;11.176;2023-05-21T09:04:06;24.10;79.60
16402;DHT22;8310;44.626;11.176;2023-05-21T09:06:34;24.20;79.00
16402;DHT22;8310;44.626;11.176;2023-05-21T09:09:03;24.30;77.70
16402;DHT22;8310;44.626;11.176;2023-05-21T09:11:32;24.30;79.70
16402;DHT22;8310;44.626;11.176;2023-05-21T09:14:00;24.50;79.50
16402;DHT22;8310;44.626;11.176;2023-05-21T09:16:27;24.50;79.30
16402;DHT22;8310;44.626;11.176;2023-05-21T09:18:54;24.50;78.70
16402;DHT22;8310;44.626;11.176;2023-05-21T09:21:22;24.50;79.10
16402;DHT22;8310;44.626;11.176;2023-05-21T09:23:52;24.50;79.30
16402;DHT22;8310;44.626;11.176;2023-05-21T09:26:21;24.50;78.40
16402;DHT22;8310;44.626;11.176;2023-05-21T09:28:49;24.60;79.20
16402;DHT22;8310;44.626;11.176;2023-05-21T09:31:17;24.80;79.80
16402;DHT22;8310;44.626;11.176;2023-05-21T09:33:44;24.90;79.10
16402;DHT22;8310;44.626;11.176;2023-05-21T09:36:12;25.00;79.70
16402;DHT22;8310;44.626;11.176;2023-05-21T09:38:39;25.00;78.30
16402;DHT22;8310;44.626;11.176;2023-05-21T09:41:07;24.90;77.50
16402;DHT22;8310;44.626;11.176;2023-05-21T09:43:36;24.90;78.60
16402;DHT22;8310;44.626;11.176;2023-05-21T09:46:04;24.90;78.90
16402;DHT22;8310;44.626;11.176;2023-05-21T09:48:35;25.00;79.30
16402;DHT22;8310;44.626;11.176;2023-05-21T09:51:09;25.00;79.60
16402;DHT22;8310;44.626;11.176;2023-05-21T09:53:36;25.20;77.50
16402;DHT22;8310;44.626;11.176;2023-05-21T09:56:08;25.20;79.10
16402;DHT22;8310;44.626;11.176;2023-05-21T09:58:37;25.30;79.20
16402;DHT22;8310;44.626;11.176;2023-05-21T10:01:05;25.40;78.50
16402;DHT22;8310;44.626;11.176;2023-05-21T10:03:32;25.50;79.00
16402;DHT22;8310;44.626;11.176;2023-05-21T10:05:59;25.60;79.10
16402;DHT22;8310;44.626;11.176;2023-05-21T10:08:26;25.70;79.70
16402;DHT22;8310;44.626;11.176;2023-05-21T10:10:57;25.80;79.70
16402;DHT22;8310;44.626;11.176;2023-05-21T10:13:25;25.90;79.10
16402;DHT22;8310;44.626;11.176;2023-05-21T10:15:58;25.90;77.60
16402;DHT22;8310;44.626;11.176;2023-05-21T10:18:25;25.90;78.90
16402;DHT22;8310;44.626;11.176;2023-05-21T10:20:54;25.90;78.90
16402;DHT22;8310;44.626;11.176;2023-05-21T10:23:21;26.00;78.40
16402;DHT22;8310;44.626;11.176;2023-05-21T10:25:49;26.00;78.60
16402;DHT22;8310;44.626;11.176;2023-05-21T10:28:17;26.10;78.60
16402;DHT22;8310;44.626;11.176;2023-05-21T10:30:45;26.10;77.40
16402;DHT22;8310;44.626;11.176;2023-05-21T10:33:14;26.20;79.60
16402;DHT22;8310;44.626;11.176;2023-05-21T10:35:42;26.20;77.90
16402;DHT22;8310;44.626;11.176;2023-05-21T10:38:10;26.30;78.60
16402;DHT22;8310;44.626;11.176;2023-05-21T10:40:39;26.40;76.50
16402;DHT22;8310;44.626;11.176;2023-05-21T10:43:19;26.50;78.80
16402;DHT22;8310;44.626;11.176;2023-05-21T10:45:52;26.60;78.10
16402;DHT22;8310;44.626;11.176;2023-05-21T10:48:27;26.60;78.10
16402;DHT22;8310;44.626;11.176;2023-05-21T10:51:05;26.60;77.40
16402;DHT22;8310;44.626;11.176;2023-05-21T10:53:37;26.50;78.10
16402;DHT22;8310;44.626;11.176;2023-05-21T10:56:12;26.40;78.10
16402;DHT22;8310;44.626;11.176;2023-05-21T11:01:25;26.50;78.50
16402;DHT22;8310;44.626;11.176;2023-05-21T11:03:56;26.50;77.80
16402;DHT22;8310;44.626;11.176;2023-05-21T11:06:24;26.40;77.10
16402;DHT22;8310;44.626;11.176;2023-05-21T11:08:51;26.30;77.10
16402;DHT22;8310;44.626;11.176;2023-05-21T11:14:06;26.20;77.40
16402;DHT22;8310;44.626;11.176;2023-05-21T11:16:50;26.30;77.70
16402;DHT22;8310;44.626;11.176;2023-05-21T11:19:18;26.30;78.10
16402;DHT22;8310;44.626;11.176;2023-05-21T11:21:49;26.40;77.30
16402;DHT22;8310;44.626;11.176;2023-05-21T11:24:18;26.40;76.90
16402;DHT22;8310;44.626;11.176;2023-05-21T11:26:58;26.50;77.70
16402;DHT22;8310;44.626;11.176;2023-05-21T11:29:35;26.60;75.70
16402;DHT22;8310;44.626;11.176;2023-05-21T11:32:05;26.70;76.30
16402;DHT22;8310;44.626;11.176;2023-05-21T11:34:39;26.80;77.30
16402;DHT22;8310;44.626;11.176;2023-05-21T11:37:25;26.80;77.40
16402;DHT22;8310;44.626;11.176;2023-05-21T11:39:54;26.80;77.50
16402;DHT22;8310;44.626;11.176;2023-05-21T11:42:28;26.90;77.60
16402;DHT22;8310;44.626;11.176;2023-05-21T11:44:56;26.90;77.50
16402;DHT22;8310;44.626;11.176;2023-05-21T11:47:24;27.00;77.80
16402;DHT22;8310;44.626;11.176;2023-05-21T11:49:53;27.00;77.80
16402;DHT22;8310;44.626;11.176;2023-05-21T11:52:21;27.10;77.30
16402;DHT22;8310;44.626;11.176;2023-05-21T11:54:49;27.10;77.60
16402;DHT22;8310;44.626;11.176;2023-05-21T11:57:19;27.10;77.70
16402;DHT22;8310;44.626;11.176;2023-05-21T11:59:47;27.10;77.60
16402;DHT22;8310;44.626;11.176;2023-05-21T12:02:16;27.20;77.80
16402;DHT22;8310;44.626;11.176;2023-05-21T12:04:43;27.30;76.90
16402;DHT22;8310;44.626;11.176;2023-05-21T12:07:13;27.30;77.60
16402;DHT22;8310;44.626;11.176;2023-05-21T12:09:40;27.40;76.80
16402;DHT22;8310;44.626;11.176;2023-05-21T12:12:08;27.40;77.40
16402;DHT22;8310;44.626;11.176;2023-05-21T12:14:35;27.40;76.30
16402;DHT22;8310;44.626;11.176;2023-05-21T12:17:03;27.40;76.80
16402;DHT22;8310;44.626;11.176;2023-05-21T12:19:31;27.40;76.70
16402;DHT22;8310;44.626;11.176;2023-05-21T12:22:00;27.40;76.80
16402;DHT22;8310;44.626;11.176;2023-05-21T12:24:29;27.40;76.70
16402;DHT22;8310;44.626;11.176;2023-05-21T12:26:57;27.30;76.60
16402;DHT22;8310;44.626;11.176;2023-05-21T12:29:25;27.30;76.50
16402;DHT22;8310;44.626;11.176;2023-05-21T12:31:53;27.30;76.60
16402;DHT22;8310;44.626;11.176;2023-05-21T12:34:39;27.30;76.60
16402;DHT22;8310;44.626;11.176;2023-05-21T12:37:07;27.30;77.00
16402;DHT22;8310;44.626;11.176;2023-05-21T12:39:39;27.30;77.00
16402;DHT22;8310;44.626;11.176;2023-05-21T12:42:07;27.50;77.70
16402;DHT22;8310;44.626;11.176;2023-05-21T12:44:34;27.60;78.10
16402;DHT22;8310;44.626;11.176;2023-05-21T12:47:02;27.80;78.40
16402;DHT22;8310;44.626;11.176;2023-05-21T12:49:30;28.00;78.40
16402;DHT22;8310;44.626;11.176;2023-05-21T12:51:57;28.10;78.20
16402;DHT22;8310;44.626;11.176;2023-05-21T12:54:32;28.30;77.70
16402;DHT22;8310;44.626;11.176;2023-05-21T12:57:08;28.30;78.00
16402;DHT22;8310;44.626;11.176;2023-05-21T12:59:48;28.40;77.80
16402;DHT22;8310;44.626;11.176;2023-05-21T13:02:22;28.40;77.40
16402;DHT22;8310;44.626;11.176;2023-05-21T13:04:54;28.50;77.50
16402;DHT22;8310;44.626;11.176;2023-05-21T13:07:22;28.50;77.60
16402;DHT22;8310;44.626;11.176;2023-05-21T13:09:50;28.60;77.90
16402;DHT22;8310;44.626;11.176;2023-05-21T13:12:20;28.70;77.60
16402;DHT22;8310;44.626;11.176;2023-05-21T13:14:48;28.70;77.60
16402;DHT22;8310;44.626;11.176;2023-05-21T13:17:15;28.80;77.60
16402;DHT22;8310;44.626;11.176;2023-05-21T13:19:59;28.90;77.50
16402;DHT22;8310;44.626;11.176;2023-05-21T13:22:29;28.90;75.80
16402;DHT22;8310;44.626;11.176;2023-05-21T13:24:57;28.90;77.00
16402;DHT22;8310;44.626;11.176;2023-05-21T13:27:25;28.90;77.10
16402;DHT22;8310;44.626;11.176;2023-05-21T13:29:53;28.90;76.70
16402;DHT22;8310;44.626;11.176;2023-05-21T13:32:20;28.80;76.30
16402;DHT22;8310;44.626;11.176;2023-05-21T13:34:48;28.80;76.50
16402;DHT22;8310;44.626;11.176;2023-05-21T13:37:15;28.80;76.70
16402;DHT22;8310;44.626;11.176;2023-05-21T13:39:42;28.80;76.90
16402;DHT22;8310;44.626;11.176;2023-05-21T13:42:10;28.90;73.70
16402;DHT22;8310;44.626;11.176;2023-05-21T13:44:39;28.90;76.50
16402;DHT22;8310;44.626;11.176;2023-05-21T13:47:06;28.90;76.50
16402;DHT22;8310;44.626;11.176;2023-05-21T13:49:34;28.90;76.50
16402;DHT22;8310;44.626;11.176;2023-05-21T13:52:03;28.90;75.80
16402;DHT22;8310;44.626;11.176;2023-05-21T13:54:31;28.90;76.30
16402;DHT22;8310;44.626;11.176;2023-05-21T13:56:58;28.90;76.50
16402;DHT22;8310;44.626;11.176;2023-05-21T13:59:25;29.00;76.80
16402;DHT22;8310;44.626;11.176;2023-05-21T14:01:54;29.00;76.60
16402;DHT22;8310;44.626;11.176;2023-05-21T14:04:22;29.10;76.40
16402;DHT22;8310;44.626;11.176;2023-05-21T14:06:50;29.10;76.50
16402;DHT22;8310;44.626;11.176;2023-05-21T14:09:17;29.10;76.20
16402;DHT22;8310;44.626;11.176;2023-05-21T14:11:44;29.00;76.00
16402;DHT22;8310;44.626;11.176;2023-05-21T14:14:11;29.00;76.10
16402;DHT22;8310;44.626;11.176;2023-05-21T14:16:44;29.00;76.20
16402;DHT22;8310;44.626;11.176;2023-05-21T14:19:12;29.10;76.50
16402;DHT22;8310;44.626;11.176;2023-05-21T14:21:40;29.10;76.20
16402;DHT22;8310;44.626;11.176;2023-05-21T14:24:07;29.10;76.30
16402;DHT22;8310;44.626;11.176;2023-05-21T14:26:36;29.10;76.10
16402;DHT22;8310;44.626;11.176;2023-05-21T14:29:03;29.10;76.00
16402;DHT22;8310;44.626;11.176;2023-05-21T14:31:30;29.10;76.10
16402;DHT22;8310;44.626;11.176;2023-05-21T14:33:57;29.10;76.10
16402;DHT22;8310;44.626;11.176;2023-05-21T14:36:26;29.20;76.30
16402;DHT22;8310;44.626;11.176;2023-05-21T14:38:54;29.20;76.30
16402;DHT22;8310;44.626;11.176;2023-05-21T14:41:22;29.30;76.40
16402;DHT22;8310;44.626;11.176;2023-05-21T14:43:49;29.30;76.50
16402;DHT22;8310;44.626;11.176;2023-05-21T14:46:17;29.40;75.80
16402;DHT22;8310;44.626;11.176;2023-05-21T14:48:44;29.30;75.40
16402;DHT22;8310;44.626;11.176;2023-05-21T14:51:12;29.20;74.90
16402;DHT22;8310;44.626;11.176;2023-05-21T14:53:41;29.20;75.20
16402;DHT22;8310;44.626;11.176;2023-05-21T14:56:08;29.10;75.20
16402;DHT22;8310;44.626;11.176;2023-05-21T14:58:35;29.00;75.00
16402;DHT22;8310;44.626;11.176;2023-05-21T15:01:03;29.00;75.20
16402;DHT22;8310;44.626;11.176;2023-05-21T15:03:31;28.90;74.50
16402;DHT22;8310;44.626;11.176;2023-05-21T15:05:58;28.90;75.00
16402;DHT22;8310;44.626;11.176;2023-05-21T15:08:25;28.90;75.20
16402;DHT22;8310;44.626;11.176;2023-05-21T15:10:54;28.80;74.70
16402;DHT22;8310;44.626;11.176;2023-05-21T15:13:22;28.80;74.60
16402;DHT22;8310;44.626;11.176;2023-05-21T15:15:49;28.80;75.50
16402;DHT22;8310;44.626;11.176;2023-05-21T15:18:16;28.80;74.90
16402;DHT22;8310;44.626;11.176;2023-05-21T15:20:43;28.70;75.10
16402;DHT22;8310;44.626;11.176;2023-05-21T15:23:11;28.80;75.30
16402;DHT22;8310;44.626;11.176;2023-05-21T15:25:38;28.80;75.20
16402;DHT22;8310;44.626;11.176;2023-05-21T15:28:06;28.80;74.70
16402;DHT22;8310;44.626;11.176;2023-05-21T15:30:34;28.70;74.80
16402;DHT22;8310;44.626;11.176;2023-05-21T15:33:01;28.70;74.20
16402;DHT22;8310;44.626;11.176;2023-05-21T15:35:29;28.60;74.60
16402;DHT22;8310;44.626;11.176;2023-05-21T15:37:56;28.60;74.40
16402;DHT22;8310;44.626;11.176;2023-05-21T15:40:23;28.60;74.70
16402;DHT22;8310;44.626;11.176;2023-05-21T15:42:50;28.60;74.70